EDLP

Paderborn Lippstadt Airport

Paderborn, Germany
METAR EDLP 151320Z VRB02KT CAVOK 04/M01 Q0995
Observed Flight Rules
Dec-15 @ 13:20 UTC (39 minutes ago) Visual Flight Rules
Wind Visibility Clouds
Variable at 2 knots 10,000+ meters
  • Clear skies
Temperatures Readings
Current 4°C / 39°F
Dewpoint -1°C / 30°F
Humidity 70%
Altimeter 29.38" Hg
Pressure 995 hPa
Elevation 213
METAR EDLP 151320Z VRB02KT CAVOK 04/M01 Q0995
Observed Flight Rules
Dec-15 @ 13:20 UTC
(39 minutes ago)
VFR
Wind Visibility
Variable at 2 knots 10,000+ meters
Clouds
  • Clear skies
Temperature Dewpoint
4°C / 39°F -1°C / 30°F
Humidity Altimeter Pressure
70% 29.38" Hg 995 hPa